Lula, Georgia
Current Conditions -  °F | °C
As of 10:53 PM on Wednesday 17 Dec 2014 (Local Time) from KGVL Reporting Station
Clear Clear  
Wind Chill: 31°   Ceiling: Unl
Heat Index: 39°   Visibility: 10mi
Dew Point: 33°   Wind: 13mph
Humidity: 79%   Direction: 280°W
Pressure: 30.11"   Gusts: NA
Location:  34.39°N, 83.67°W
Report Text: KGVL 180353Z AUTO 28011KT 10SM CLR 04/01 A3011 RMK AO2 SLP199 T00390006
Loading
Personal Weather Stations






























Interactive Weather Map New forecast layout! Learn more

10-Day Weather Forecast

Advertisements
Track Severe Weather on mobile